sensor_id;sensor_type;location;lat;lon;timestamp;P1;durP1;ratioP1;P2;durP2;ratioP2
40669;SDS011;26355;45.528;9.234;2023-05-19T00:01:07;14.88;;;5.20;;
40669;SDS011;26355;45.528;9.234;2023-05-19T00:03:33;14.20;;;5.35;;
40669;SDS011;26355;45.528;9.234;2023-05-19T00:06:04;14.13;;;5.20;;
40669;SDS011;26355;45.528;9.234;2023-05-19T00:08:30;16.40;;;6.13;;
40669;SDS011;26355;45.528;9.234;2023-05-19T00:10:58;13.32;;;5.07;;
40669;SDS011;26355;45.528;9.234;2023-05-19T00:13:23;13.68;;;5.20;;
40669;SDS011;26355;45.528;9.234;2023-05-19T00:15:49;14.88;;;5.15;;
40669;SDS011;26355;45.528;9.234;2023-05-19T00:18:15;15.77;;;5.80;;
40669;SDS011;26355;45.528;9.234;2023-05-19T00:20:41;17.00;;;6.55;;
40669;SDS011;26355;45.528;9.234;2023-05-19T00:23:07;16.17;;;5.68;;
40669;SDS011;26355;45.528;9.234;2023-05-19T00:25:34;16.40;;;6.30;;
40669;SDS011;26355;45.528;9.234;2023-05-19T00:28:00;18.77;;;6.05;;
40669;SDS011;26355;45.528;9.234;2023-05-19T00:30:26;15.25;;;5.88;;
40669;SDS011;26355;45.528;9.234;2023-05-19T00:32:53;15.30;;;6.20;;
40669;SDS011;26355;45.528;9.234;2023-05-19T00:35:19;16.45;;;6.20;;
40669;SDS011;26355;45.528;9.234;2023-05-19T00:37:45;14.50;;;5.45;;
40669;SDS011;26355;45.528;9.234;2023-05-19T00:40:11;16.95;;;6.20;;
40669;SDS011;26355;45.528;9.234;2023-05-19T00:42:37;14.98;;;6.00;;
40669;SDS011;26355;45.528;9.234;2023-05-19T00:45:03;17.73;;;6.63;;
40669;SDS011;26355;45.528;9.234;2023-05-19T00:47:29;15.55;;;5.85;;
40669;SDS011;26355;45.528;9.234;2023-05-19T00:49:54;17.02;;;6.50;;
40669;SDS011;26355;45.528;9.234;2023-05-19T00:52:20;17.25;;;6.28;;
40669;SDS011;26355;45.528;9.234;2023-05-19T00:54:46;15.60;;;6.07;;
40669;SDS011;26355;45.528;9.234;2023-05-19T00:57:12;15.43;;;6.18;;
40669;SDS011;26355;45.528;9.234;2023-05-19T00:59:38;16.40;;;5.90;;
40669;SDS011;26355;45.528;9.234;2023-05-19T01:02:04;14.52;;;5.80;;
40669;SDS011;26355;45.528;9.234;2023-05-19T01:04:31;15.13;;;6.05;;
40669;SDS011;26355;45.528;9.234;2023-05-19T01:07:00;15.05;;;6.18;;
40669;SDS011;26355;45.528;9.234;2023-05-19T01:09:25;14.93;;;6.40;;
40669;SDS011;26355;45.528;9.234;2023-05-19T01:11:51;15.77;;;6.32;;
40669;SDS011;26355;45.528;9.234;2023-05-19T01:14:17;15.93;;;6.22;;
40669;SDS011;26355;45.528;9.234;2023-05-19T01:19:45;16.98;;;6.65;;
40669;SDS011;26355;45.528;9.234;2023-05-19T01:31:13;15.65;;;6.38;;
40669;SDS011;26355;45.528;9.234;2023-05-19T01:33:40;16.70;;;7.05;;
40669;SDS011;26355;45.528;9.234;2023-05-19T01:36:08;19.40;;;7.05;;
40669;SDS011;26355;45.528;9.234;2023-05-19T01:38:36;17.33;;;6.88;;
40669;SDS011;26355;45.528;9.234;2023-05-19T01:41:03;15.68;;;6.82;;
40669;SDS011;26355;45.528;9.234;2023-05-19T01:45:57;17.63;;;7.82;;
40669;SDS011;26355;45.528;9.234;2023-05-19T01:48:22;15.90;;;7.35;;
40669;SDS011;26355;45.528;9.234;2023-05-19T01:50:49;16.00;;;7.03;;
40669;SDS011;26355;45.528;9.234;2023-05-19T01:53:15;18.52;;;7.50;;
40669;SDS011;26355;45.528;9.234;2023-05-19T01:55:50;16.63;;;7.40;;
40669;SDS011;26355;45.528;9.234;2023-05-19T02:09:34;15.60;;;7.53;;
40669;SDS011;26355;45.528;9.234;2023-05-19T02:14:44;18.60;;;7.85;;
40669;SDS011;26355;45.528;9.234;2023-05-19T02:17:14;17.45;;;7.82;;
40669;SDS011;26355;45.528;9.234;2023-05-19T02:19:41;17.65;;;7.90;;
40669;SDS011;26355;45.528;9.234;2023-05-19T02:22:07;17.58;;;7.63;;
40669;SDS011;26355;45.528;9.234;2023-05-19T02:24:33;17.50;;;7.28;;
40669;SDS011;26355;45.528;9.234;2023-05-19T02:26:58;16.65;;;8.02;;
40669;SDS011;26355;45.528;9.234;2023-05-19T02:29:24;16.70;;;7.32;;
40669;SDS011;26355;45.528;9.234;2023-05-19T02:31:50;17.15;;;7.32;;
40669;SDS011;26355;45.528;9.234;2023-05-19T02:34:15;16.55;;;7.28;;
40669;SDS011;26355;45.528;9.234;2023-05-19T02:36:41;16.38;;;7.80;;
40669;SDS011;26355;45.528;9.234;2023-05-19T02:39:07;18.17;;;7.80;;
40669;SDS011;26355;45.528;9.234;2023-05-19T02:41:34;18.45;;;8.07;;
40669;SDS011;26355;45.528;9.234;2023-05-19T02:44:00;16.55;;;7.95;;
40669;SDS011;26355;45.528;9.234;2023-05-19T02:46:26;16.60;;;7.63;;
40669;SDS011;26355;45.528;9.234;2023-05-19T02:48:52;16.75;;;8.07;;
40669;SDS011;26355;45.528;9.234;2023-05-19T02:51:17;17.73;;;8.30;;
40669;SDS011;26355;45.528;9.234;2023-05-19T02:53:43;18.85;;;8.48;;
40669;SDS011;26355;45.528;9.234;2023-05-19T02:56:08;19.00;;;9.32;;
40669;SDS011;26355;45.528;9.234;2023-05-19T02:58:34;19.33;;;10.05;;
40669;SDS011;26355;45.528;9.234;2023-05-19T03:00:59;19.02;;;8.98;;
40669;SDS011;26355;45.528;9.234;2023-05-19T03:03:25;18.35;;;9.05;;
40669;SDS011;26355;45.528;9.234;2023-05-19T03:05:51;19.07;;;8.37;;
40669;SDS011;26355;45.528;9.234;2023-05-19T03:08:17;17.05;;;8.80;;
40669;SDS011;26355;45.528;9.234;2023-05-19T03:10:44;16.85;;;8.13;;
40669;SDS011;26355;45.528;9.234;2023-05-19T03:13:10;18.95;;;8.65;;
40669;SDS011;26355;45.528;9.234;2023-05-19T03:15:36;18.30;;;8.27;;
40669;SDS011;26355;45.528;9.234;2023-05-19T03:18:01;17.45;;;7.72;;
40669;SDS011;26355;45.528;9.234;2023-05-19T03:20:27;19.10;;;8.93;;
40669;SDS011;26355;45.528;9.234;2023-05-19T03:22:54;21.02;;;9.55;;
40669;SDS011;26355;45.528;9.234;2023-05-19T03:25:20;19.63;;;8.98;;
40669;SDS011;26355;45.528;9.234;2023-05-19T03:27:45;18.83;;;9.43;;
40669;SDS011;26355;45.528;9.234;2023-05-19T03:30:11;18.38;;;8.45;;
40669;SDS011;26355;45.528;9.234;2023-05-19T03:32:37;20.35;;;10.63;;
40669;SDS011;26355;45.528;9.234;2023-05-19T03:35:03;18.48;;;9.85;;
40669;SDS011;26355;45.528;9.234;2023-05-19T03:37:29;20.47;;;10.87;;
40669;SDS011;26355;45.528;9.234;2023-05-19T03:39:55;21.75;;;12.05;;
40669;SDS011;26355;45.528;9.234;2023-05-19T03:42:21;19.70;;;10.57;;
40669;SDS011;26355;45.528;9.234;2023-05-19T03:44:46;22.10;;;10.73;;
40669;SDS011;26355;45.528;9.234;2023-05-19T03:47:12;19.85;;;11.00;;
40669;SDS011;26355;45.528;9.234;2023-05-19T03:49:38;21.85;;;11.05;;
40669;SDS011;26355;45.528;9.234;2023-05-19T03:52:03;20.20;;;9.95;;
40669;SDS011;26355;45.528;9.234;2023-05-19T03:54:29;21.13;;;11.35;;
40669;SDS011;26355;45.528;9.234;2023-05-19T03:56:55;20.02;;;10.63;;
40669;SDS011;26355;45.528;9.234;2023-05-19T03:59:21;20.75;;;11.02;;
40669;SDS011;26355;45.528;9.234;2023-05-19T04:01:47;19.40;;;10.68;;
40669;SDS011;26355;45.528;9.234;2023-05-19T04:04:13;19.75;;;9.75;;
40669;SDS011;26355;45.528;9.234;2023-05-19T04:06:38;19.60;;;10.30;;
40669;SDS011;26355;45.528;9.234;2023-05-19T04:09:09;18.30;;;9.38;;
40669;SDS011;26355;45.528;9.234;2023-05-19T04:11:36;17.40;;;8.48;;
40669;SDS011;26355;45.528;9.234;2023-05-19T04:14:03;19.52;;;10.35;;
40669;SDS011;26355;45.528;9.234;2023-05-19T04:16:29;19.25;;;9.70;;
40669;SDS011;26355;45.528;9.234;2023-05-19T04:18:54;17.08;;;8.40;;
40669;SDS011;26355;45.528;9.234;2023-05-19T04:21:20;17.55;;;8.70;;
40669;SDS011;26355;45.528;9.234;2023-05-19T04:23:46;19.73;;;8.00;;
40669;SDS011;26355;45.528;9.234;2023-05-19T04:26:12;20.73;;;8.63;;
40669;SDS011;26355;45.528;9.234;2023-05-19T04:28:41;18.30;;;8.20;;
40669;SDS011;26355;45.528;9.234;2023-05-19T04:31:08;17.40;;;7.68;;
40669;SDS011;26355;45.528;9.234;2023-05-19T04:33:38;18.45;;;8.93;;
40669;SDS011;26355;45.528;9.234;2023-05-19T04:36:05;19.48;;;9.48;;
40669;SDS011;26355;45.528;9.234;2023-05-19T04:38:36;19.00;;;8.38;;
40669;SDS011;26355;45.528;9.234;2023-05-19T04:41:04;16.25;;;8.35;;
40669;SDS011;26355;45.528;9.234;2023-05-19T04:43:36;18.15;;;7.85;;
40669;SDS011;26355;45.528;9.234;2023-05-19T04:46:05;17.70;;;7.85;;
40669;SDS011;26355;45.528;9.234;2023-05-19T04:48:31;16.40;;;7.60;;
40669;SDS011;26355;45.528;9.234;2023-05-19T04:50:57;16.88;;;7.70;;
40669;SDS011;26355;45.528;9.234;2023-05-19T04:53:25;17.23;;;7.07;;
40669;SDS011;26355;45.528;9.234;2023-05-19T04:55:54;18.05;;;8.32;;
40669;SDS011;26355;45.528;9.234;2023-05-19T04:58:24;16.80;;;7.03;;
40669;SDS011;26355;45.528;9.234;2023-05-19T05:00:50;16.48;;;7.18;;
40669;SDS011;26355;45.528;9.234;2023-05-19T05:03:16;17.27;;;7.93;;
40669;SDS011;26355;45.528;9.234;2023-05-19T05:05:42;17.33;;;7.28;;
40669;SDS011;26355;45.528;9.234;2023-05-19T05:08:08;16.27;;;7.38;;
40669;SDS011;26355;45.528;9.234;2023-05-19T05:10:35;15.60;;;6.85;;
40669;SDS011;26355;45.528;9.234;2023-05-19T05:13:00;15.65;;;6.85;;
40669;SDS011;26355;45.528;9.234;2023-05-19T05:15:26;17.20;;;6.63;;
40669;SDS011;26355;45.528;9.234;2023-05-19T05:17:53;17.33;;;6.88;;
40669;SDS011;26355;45.528;9.234;2023-05-19T05:20:20;15.40;;;6.15;;
40669;SDS011;26355;45.528;9.234;2023-05-19T05:22:46;20.50;;;6.80;;
40669;SDS011;26355;45.528;9.234;2023-05-19T05:25:12;14.55;;;5.40;;
40669;SDS011;26355;45.528;9.234;2023-05-19T05:27:38;16.60;;;6.28;;
40669;SDS011;26355;45.528;9.234;2023-05-19T05:30:04;16.77;;;6.78;;
40669;SDS011;26355;45.528;9.234;2023-05-19T05:32:30;19.58;;;7.00;;
40669;SDS011;26355;45.528;9.234;2023-05-19T05:34:55;16.67;;;6.40;;
40669;SDS011;26355;45.528;9.234;2023-05-19T05:37:21;16.92;;;6.22;;
40669;SDS011;26355;45.528;9.234;2023-05-19T05:39:47;17.38;;;7.30;;
40669;SDS011;26355;45.528;9.234;2023-05-19T05:42:12;19.38;;;6.22;;
40669;SDS011;26355;45.528;9.234;2023-05-19T05:44:38;19.30;;;7.15;;
40669;SDS011;26355;45.528;9.234;2023-05-19T05:47:03;17.63;;;6.20;;
40669;SDS011;26355;45.528;9.234;2023-05-19T05:49:29;17.88;;;6.57;;
40669;SDS011;26355;45.528;9.234;2023-05-19T05:51:55;18.00;;;6.30;;
40669;SDS011;26355;45.528;9.234;2023-05-19T05:54:21;14.95;;;6.53;;
40669;SDS011;26355;45.528;9.234;2023-05-19T05:56:48;15.38;;;6.32;;
40669;SDS011;26355;45.528;9.234;2023-05-19T05:59:14;15.80;;;6.03;;
40669;SDS011;26355;45.528;9.234;2023-05-19T06:01:40;17.08;;;6.10;;
40669;SDS011;26355;45.528;9.234;2023-05-19T06:04:07;18.73;;;6.00;;
40669;SDS011;26355;45.528;9.234;2023-05-19T06:06:33;17.50;;;5.53;;
40669;SDS011;26355;45.528;9.234;2023-05-19T06:09:00;17.40;;;6.35;;
40669;SDS011;26355;45.528;9.234;2023-05-19T06:11:25;16.10;;;6.07;;
40669;SDS011;26355;45.528;9.234;2023-05-19T06:13:52;22.20;;;7.95;;
40669;SDS011;26355;45.528;9.234;2023-05-19T06:16:18;18.13;;;7.10;;
40669;SDS011;26355;45.528;9.234;2023-05-19T06:18:43;16.73;;;5.82;;
40669;SDS011;26355;45.528;9.234;2023-05-19T06:21:09;16.55;;;6.00;;
40669;SDS011;26355;45.528;9.234;2023-05-19T06:23:37;17.38;;;6.43;;
40669;SDS011;26355;45.528;9.234;2023-05-19T06:26:03;17.27;;;6.30;;
40669;SDS011;26355;45.528;9.234;2023-05-19T06:28:29;19.33;;;6.70;;
40669;SDS011;26355;45.528;9.234;2023-05-19T06:30:55;19.38;;;6.07;;
40669;SDS011;26355;45.528;9.234;2023-05-19T06:33:21;19.88;;;6.88;;
40669;SDS011;26355;45.528;9.234;2023-05-19T06:35:46;15.60;;;5.75;;
40669;SDS011;26355;45.528;9.234;2023-05-19T06:38:12;16.50;;;6.50;;
40669;SDS011;26355;45.528;9.234;2023-05-19T06:40:38;21.27;;;6.15;;
40669;SDS011;26355;45.528;9.234;2023-05-19T06:43:03;15.65;;;5.35;;
40669;SDS011;26355;45.528;9.234;2023-05-19T06:45:29;15.52;;;5.43;;
40669;SDS011;26355;45.528;9.234;2023-05-19T06:47:54;17.30;;;6.10;;
40669;SDS011;26355;45.528;9.234;2023-05-19T06:50:22;20.23;;;6.60;;
40669;SDS011;26355;45.528;9.234;2023-05-19T06:52:49;16.85;;;6.53;;
40669;SDS011;26355;45.528;9.234;2023-05-19T06:55:15;16.35;;;5.20;;
40669;SDS011;26355;45.528;9.234;2023-05-19T06:57:40;18.42;;;6.53;;
40669;SDS011;26355;45.528;9.234;2023-05-19T07:00:06;18.50;;;6.00;;
40669;SDS011;26355;45.528;9.234;2023-05-19T07:02:36;18.48;;;6.60;;
40669;SDS011;26355;45.528;9.234;2023-05-19T07:05:02;17.15;;;5.78;;
40669;SDS011;26355;45.528;9.234;2023-05-19T07:07:28;20.45;;;6.55;;
40669;SDS011;26355;45.528;9.234;2023-05-19T07:09:54;16.13;;;5.78;;
40669;SDS011;26355;45.528;9.234;2023-05-19T07:12:20;16.73;;;6.22;;
40669;SDS011;26355;45.528;9.234;2023-05-19T07:14:45;14.63;;;5.15;;
40669;SDS011;26355;45.528;9.234;2023-05-19T07:17:11;15.82;;;6.35;;
40669;SDS011;26355;45.528;9.234;2023-05-19T07:19:36;16.48;;;5.72;;
40669;SDS011;26355;45.528;9.234;2023-05-19T07:22:02;17.00;;;5.45;;
40669;SDS011;26355;45.528;9.234;2023-05-19T07:24:28;16.65;;;6.18;;
40669;SDS011;26355;45.528;9.234;2023-05-19T07:26:54;17.97;;;7.03;;
40669;SDS011;26355;45.528;9.234;2023-05-19T07:29:20;18.13;;;5.60;;
40669;SDS011;26355;45.528;9.234;2023-05-19T07:31:45;17.92;;;6.50;;
40669;SDS011;26355;45.528;9.234;2023-05-19T07:34:11;16.27;;;5.53;;
40669;SDS011;26355;45.528;9.234;2023-05-19T07:36:37;15.30;;;6.13;;
40669;SDS011;26355;45.528;9.234;2023-05-19T07:39:02;16.45;;;5.60;;
40669;SDS011;26355;45.528;9.234;2023-05-19T07:41:28;17.52;;;6.57;;
40669;SDS011;26355;45.528;9.234;2023-05-19T07:43:54;15.70;;;6.57;;
40669;SDS011;26355;45.528;9.234;2023-05-19T07:46:19;17.02;;;6.57;;
40669;SDS011;26355;45.528;9.234;2023-05-19T07:48:46;17.60;;;6.63;;
40669;SDS011;26355;45.528;9.234;2023-05-19T07:51:11;17.67;;;6.75;;
40669;SDS011;26355;45.528;9.234;2023-05-19T07:53:37;17.80;;;6.25;;
40669;SDS011;26355;45.528;9.234;2023-05-19T07:56:03;21.00;;;6.70;;
40669;SDS011;26355;45.528;9.234;2023-05-19T07:58:31;18.83;;;8.18;;
40669;SDS011;26355;45.528;9.234;2023-05-19T08:00:57;17.80;;;6.82;;
40669;SDS011;26355;45.528;9.234;2023-05-19T08:03:23;16.55;;;6.38;;
40669;SDS011;26355;45.528;9.234;2023-05-19T08:05:49;16.67;;;6.23;;
40669;SDS011;26355;45.528;9.234;2023-05-19T08:08:15;19.48;;;6.85;;
40669;SDS011;26355;45.528;9.234;2023-05-19T08:10:41;16.50;;;6.35;;
40669;SDS011;26355;45.528;9.234;2023-05-19T08:13:07;18.83;;;7.10;;
40669;SDS011;26355;45.528;9.234;2023-05-19T08:15:32;18.20;;;6.80;;
40669;SDS011;26355;45.528;9.234;2023-05-19T08:17:58;21.20;;;7.72;;
40669;SDS011;26355;45.528;9.234;2023-05-19T08:20:23;21.63;;;7.10;;
40669;SDS011;26355;45.528;9.234;2023-05-19T08:22:49;20.40;;;6.68;;
40669;SDS011;26355;45.528;9.234;2023-05-19T08:25:14;16.65;;;6.47;;
40669;SDS011;26355;45.528;9.234;2023-05-19T08:27:40;18.75;;;6.22;;
40669;SDS011;26355;45.528;9.234;2023-05-19T08:30:06;16.75;;;5.45;;
40669;SDS011;26355;45.528;9.234;2023-05-19T08:32:32;17.55;;;6.70;;
40669;SDS011;26355;45.528;9.234;2023-05-19T08:34:57;19.20;;;6.72;;
40669;SDS011;26355;45.528;9.234;2023-05-19T08:37:23;17.48;;;6.50;;
40669;SDS011;26355;45.528;9.234;2023-05-19T08:39:48;18.77;;;6.78;;
40669;SDS011;26355;45.528;9.234;2023-05-19T08:42:14;16.85;;;5.95;;
40669;SDS011;26355;45.528;9.234;2023-05-19T08:44:40;16.20;;;6.55;;
40669;SDS011;26355;45.528;9.234;2023-05-19T08:47:07;17.05;;;6.28;;
40669;SDS011;26355;45.528;9.234;2023-05-19T08:49:41;16.25;;;6.93;;
40669;SDS011;26355;45.528;9.234;2023-05-19T08:52:52;17.67;;;7.00;;
40669;SDS011;26355;45.528;9.234;2023-05-19T08:58:03;22.05;;;7.70;;
40669;SDS011;26355;45.528;9.234;2023-05-19T09:00:29;20.20;;;7.97;;
40669;SDS011;26355;45.528;9.234;2023-05-19T09:02:55;18.23;;;7.15;;
40669;SDS011;26355;45.528;9.234;2023-05-19T09:05:21;15.52;;;6.18;;
40669;SDS011;26355;45.528;9.234;2023-05-19T09:07:47;15.95;;;6.53;;
40669;SDS011;26355;45.528;9.234;2023-05-19T09:10:13;17.00;;;6.70;;
40669;SDS011;26355;45.528;9.234;2023-05-19T09:12:47;16.95;;;6.18;;
40669;SDS011;26355;45.528;9.234;2023-05-19T09:15:16;17.00;;;6.13;;
40669;SDS011;26355;45.528;9.234;2023-05-19T09:17:44;18.13;;;7.28;;
40669;SDS011;26355;45.528;9.234;2023-05-19T09:20:12;15.70;;;5.13;;
40669;SDS011;26355;45.528;9.234;2023-05-19T09:22:44;15.93;;;6.18;;
40669;SDS011;26355;45.528;9.234;2023-05-19T09:25:44;16.67;;;6.22;;
40669;SDS011;26355;45.528;9.234;2023-05-19T09:28:13;17.83;;;6.82;;
40669;SDS011;26355;45.528;9.234;2023-05-19T09:30:38;16.92;;;6.18;;
40669;SDS011;26355;45.528;9.234;2023-05-19T09:33:04;18.85;;;7.53;;
40669;SDS011;26355;45.528;9.234;2023-05-19T09:35:33;17.13;;;6.88;;
40669;SDS011;26355;45.528;9.234;2023-05-19T09:38:02;17.30;;;6.53;;
40669;SDS011;26355;45.528;9.234;2023-05-19T09:40:28;20.77;;;7.97;;
40669;SDS011;26355;45.528;9.234;2023-05-19T09:42:53;16.30;;;7.55;;
40669;SDS011;26355;45.528;9.234;2023-05-19T09:45:19;20.05;;;8.02;;
40669;SDS011;26355;45.528;9.234;2023-05-19T09:47:45;17.15;;;7.07;;
40669;SDS011;26355;45.528;9.234;2023-05-19T09:50:11;17.13;;;6.88;;
40669;SDS011;26355;45.528;9.234;2023-05-19T09:55:05;18.52;;;7.68;;
40669;SDS011;26355;45.528;9.234;2023-05-19T09:57:36;17.67;;;6.57;;
40669;SDS011;26355;45.528;9.234;2023-05-19T10:00:04;17.38;;;7.20;;
40669;SDS011;26355;45.528;9.234;2023-05-19T10:02:44;20.50;;;8.38;;
40669;SDS011;26355;45.528;9.234;2023-05-19T10:05:15;16.63;;;7.38;;
40669;SDS011;26355;45.528;9.234;2023-05-19T10:07:51;19.70;;;9.02;;
40669;SDS011;26355;45.528;9.234;2023-05-19T10:10:19;18.73;;;8.32;;
40669;SDS011;26355;45.528;9.234;2023-05-19T10:12:47;19.38;;;8.27;;
40669;SDS011;26355;45.528;9.234;2023-05-19T10:15:14;16.90;;;7.88;;
40669;SDS011;26355;45.528;9.234;2023-05-19T10:17:40;17.20;;;7.85;;
40669;SDS011;26355;45.528;9.234;2023-05-19T10:20:10;18.98;;;8.27;;
40669;SDS011;26355;45.528;9.234;2023-05-19T10:22:38;19.33;;;7.20;;
40669;SDS011;26355;45.528;9.234;2023-05-19T10:25:05;19.70;;;8.48;;
40669;SDS011;26355;45.528;9.234;2023-05-19T10:27:31;18.67;;;7.38;;
40669;SDS011;26355;45.528;9.234;2023-05-19T10:30:04;16.17;;;7.45;;
40669;SDS011;26355;45.528;9.234;2023-05-19T10:32:35;19.10;;;8.27;;
40669;SDS011;26355;45.528;9.234;2023-05-19T10:38:31;19.48;;;7.60;;
40669;SDS011;26355;45.528;9.234;2023-05-19T10:42:00;17.52;;;6.43;;
40669;SDS011;26355;45.528;9.234;2023-05-19T10:47:44;17.30;;;6.57;;
40669;SDS011;26355;45.528;9.234;2023-05-19T10:50:10;16.42;;;6.40;;
40669;SDS011;26355;45.528;9.234;2023-05-19T10:52:37;16.75;;;6.85;;
40669;SDS011;26355;45.528;9.234;2023-05-19T10:55:05;17.00;;;6.95;;
40669;SDS011;26355;45.528;9.234;2023-05-19T10:57:32;17.98;;;7.78;;
40669;SDS011;26355;45.528;9.234;2023-05-19T10:59:59;16.02;;;6.78;;
40669;SDS011;26355;45.528;9.234;2023-05-19T11:05:16;16.67;;;7.07;;
40669;SDS011;26355;45.528;9.234;2023-05-19T11:07:53;17.13;;;7.13;;
40669;SDS011;26355;45.528;9.234;2023-05-19T11:10:24;18.20;;;6.97;;
40669;SDS011;26355;45.528;9.234;2023-05-19T11:12:50;19.02;;;8.02;;
40669;SDS011;26355;45.528;9.234;2023-05-19T11:15:16;15.88;;;6.80;;
40669;SDS011;26355;45.528;9.234;2023-05-19T11:17:44;16.23;;;6.13;;
40669;SDS011;26355;45.528;9.234;2023-05-19T11:20:27;15.35;;;6.18;;
40669;SDS011;26355;45.528;9.234;2023-05-19T11:23:08;15.88;;;6.00;;
40669;SDS011;26355;45.528;9.234;2023-05-19T11:25:45;18.17;;;6.85;;
40669;SDS011;26355;45.528;9.234;2023-05-19T11:28:16;17.13;;;7.25;;
40669;SDS011;26355;45.528;9.234;2023-05-19T11:30:43;17.77;;;7.00;;
40669;SDS011;26355;45.528;9.234;2023-05-19T11:33:10;17.77;;;8.25;;
40669;SDS011;26355;45.528;9.234;2023-05-19T11:35:37;18.38;;;7.50;;
40669;SDS011;26355;45.528;9.234;2023-05-19T11:38:03;18.83;;;7.80;;
40669;SDS011;26355;45.528;9.234;2023-05-19T11:40:30;18.33;;;7.57;;
40669;SDS011;26355;45.528;9.234;2023-05-19T11:42:56;18.33;;;7.38;;
40669;SDS011;26355;45.528;9.234;2023-05-19T11:45:23;17.42;;;7.93;;
40669;SDS011;26355;45.528;9.234;2023-05-19T11:47:50;17.15;;;6.75;;
40669;SDS011;26355;45.528;9.234;2023-05-19T11:50:16;19.52;;;8.35;;
40669;SDS011;26355;45.528;9.234;2023-05-19T11:52:45;21.92;;;7.97;;
40669;SDS011;26355;45.528;9.234;2023-05-19T11:55:17;19.10;;;7.82;;
40669;SDS011;26355;45.528;9.234;2023-05-19T11:57:59;19.73;;;8.95;;
40669;SDS011;26355;45.528;9.234;2023-05-19T12:00:26;17.58;;;7.13;;
40669;SDS011;26355;45.528;9.234;2023-05-19T12:02:53;16.70;;;7.53;;
40669;SDS011;26355;45.528;9.234;2023-05-19T12:05:22;17.25;;;7.43;;
40669;SDS011;26355;45.528;9.234;2023-05-19T12:07:49;16.85;;;7.68;;
40669;SDS011;26355;45.528;9.234;2023-05-19T12:29:37;22.08;;;10.10;;
40669;SDS011;26355;45.528;9.234;2023-05-19T12:35:41;20.23;;;8.43;;
40669;SDS011;26355;45.528;9.234;2023-05-19T12:38:25;18.98;;;9.30;;
40669;SDS011;26355;45.528;9.234;2023-05-19T12:40:51;22.33;;;10.40;;
40669;SDS011;26355;45.528;9.234;2023-05-19T12:46:57;19.92;;;9.55;;
40669;SDS011;26355;45.528;9.234;2023-05-19T12:52:46;21.25;;;9.98;;
40669;SDS011;26355;45.528;9.234;2023-05-19T13:01:58;20.20;;;9.45;;
40669;SDS011;26355;45.528;9.234;2023-05-19T13:04:25;19.58;;;9.95;;
40669;SDS011;26355;45.528;9.234;2023-05-19T13:16:57;20.50;;;10.70;;
40669;SDS011;26355;45.528;9.234;2023-05-19T13:19:23;18.85;;;9.85;;
40669;SDS011;26355;45.528;9.234;2023-05-19T13:21:49;20.40;;;10.27;;
40669;SDS011;26355;45.528;9.234;2023-05-19T13:24:15;21.65;;;10.75;;
40669;SDS011;26355;45.528;9.234;2023-05-19T13:26:40;20.88;;;10.35;;
40669;SDS011;26355;45.528;9.234;2023-05-19T13:29:07;23.17;;;11.20;;
40669;SDS011;26355;45.528;9.234;2023-05-19T13:31:33;27.90;;;11.45;;
40669;SDS011;26355;45.528;9.234;2023-05-19T13:33:58;21.92;;;10.88;;
40669;SDS011;26355;45.528;9.234;2023-05-19T13:36:24;20.25;;;10.95;;
40669;SDS011;26355;45.528;9.234;2023-05-19T13:38:54;22.08;;;10.05;;
40669;SDS011;26355;45.528;9.234;2023-05-19T13:44:44;21.90;;;11.27;;
40669;SDS011;26355;45.528;9.234;2023-05-19T13:47:10;21.17;;;11.25;;
40669;SDS011;26355;45.528;9.234;2023-05-19T13:49:36;21.30;;;11.10;;
40669;SDS011;26355;45.528;9.234;2023-05-19T13:52:02;25.70;;;13.30;;
40669;SDS011;26355;45.528;9.234;2023-05-19T13:54:28;23.47;;;11.77;;
40669;SDS011;26355;45.528;9.234;2023-05-19T13:56:54;21.30;;;11.20;;
40669;SDS011;26355;45.528;9.234;2023-05-19T13:59:19;19.33;;;9.85;;
40669;SDS011;26355;45.528;9.234;2023-05-19T14:01:45;24.73;;;11.30;;
40669;SDS011;26355;45.528;9.234;2023-05-19T14:04:12;21.40;;;10.85;;
40669;SDS011;26355;45.528;9.234;2023-05-19T14:06:38;20.98;;;10.63;;
40669;SDS011;26355;45.528;9.234;2023-05-19T14:09:04;21.33;;;10.95;;
40669;SDS011;26355;45.528;9.234;2023-05-19T14:11:30;23.73;;;10.70;;
40669;SDS011;26355;45.528;9.234;2023-05-19T14:13:56;20.70;;;10.90;;
40669;SDS011;26355;45.528;9.234;2023-05-19T14:16:21;23.38;;;11.02;;
40669;SDS011;26355;45.528;9.234;2023-05-19T14:18:47;21.42;;;10.57;;
40669;SDS011;26355;45.528;9.234;2023-05-19T14:21:13;21.60;;;11.02;;
40669;SDS011;26355;45.528;9.234;2023-05-19T14:23:39;21.70;;;10.55;;
40669;SDS011;26355;45.528;9.234;2023-05-19T14:26:10;20.63;;;10.73;;
40669;SDS011;26355;45.528;9.234;2023-05-19T14:28:37;22.27;;;10.50;;
40669;SDS011;26355;45.528;9.234;2023-05-19T14:31:03;22.30;;;10.88;;
40669;SDS011;26355;45.528;9.234;2023-05-19T14:33:38;26.90;;;12.38;;
40669;SDS011;26355;45.528;9.234;2023-05-19T14:39:11;20.15;;;9.95;;
40669;SDS011;26355;45.528;9.234;2023-05-19T14:41:37;21.73;;;10.27;;
40669;SDS011;26355;45.528;9.234;2023-05-19T14:44:03;20.73;;;10.65;;
40669;SDS011;26355;45.528;9.234;2023-05-19T14:46:29;19.20;;;9.40;;
40669;SDS011;26355;45.528;9.234;2023-05-19T14:48:55;21.88;;;9.43;;
40669;SDS011;26355;45.528;9.234;2023-05-19T14:51:20;19.27;;;9.10;;
40669;SDS011;26355;45.528;9.234;2023-05-19T14:53:46;19.48;;;8.65;;
40669;SDS011;26355;45.528;9.234;2023-05-19T14:56:14;19.67;;;9.82;;
40669;SDS011;26355;45.528;9.234;2023-05-19T14:58:39;20.02;;;9.13;;
40669;SDS011;26355;45.528;9.234;2023-05-19T15:01:05;18.45;;;7.22;;
40669;SDS011;26355;45.528;9.234;2023-05-19T15:03:30;20.02;;;9.00;;
40669;SDS011;26355;45.528;9.234;2023-05-19T15:05:56;14.77;;;5.40;;
40669;SDS011;26355;45.528;9.234;2023-05-19T15:08:22;17.65;;;6.40;;
40669;SDS011;26355;45.528;9.234;2023-05-19T15:10:48;14.02;;;5.00;;
40669;SDS011;26355;45.528;9.234;2023-05-19T15:13:14;14.98;;;5.60;;
40669;SDS011;26355;45.528;9.234;2023-05-19T15:15:40;18.58;;;7.03;;
40669;SDS011;26355;45.528;9.234;2023-05-19T15:18:05;15.70;;;5.07;;
40669;SDS011;26355;45.528;9.234;2023-05-19T15:20:31;16.65;;;5.28;;
40669;SDS011;26355;45.528;9.234;2023-05-19T15:22:56;15.25;;;5.00;;
40669;SDS011;26355;45.528;9.234;2023-05-19T15:25:22;16.20;;;5.40;;
40669;SDS011;26355;45.528;9.234;2023-05-19T15:27:47;15.55;;;5.10;;
40669;SDS011;26355;45.528;9.234;2023-05-19T15:30:13;16.60;;;5.88;;
40669;SDS011;26355;45.528;9.234;2023-05-19T15:32:38;16.90;;;6.88;;
40669;SDS011;26355;45.528;9.234;2023-05-19T15:35:04;15.77;;;5.82;;
40669;SDS011;26355;45.528;9.234;2023-05-19T15:37:30;17.98;;;6.88;;
40669;SDS011;26355;45.528;9.234;2023-05-19T15:39:56;19.95;;;7.50;;
40669;SDS011;26355;45.528;9.234;2023-05-19T15:42:22;16.13;;;6.85;;
40669;SDS011;26355;45.528;9.234;2023-05-19T15:44:47;15.73;;;6.50;;
40669;SDS011;26355;45.528;9.234;2023-05-19T15:47:13;17.02;;;5.95;;
40669;SDS011;26355;45.528;9.234;2023-05-19T15:49:39;17.02;;;6.63;;
40669;SDS011;26355;45.528;9.234;2023-05-19T15:52:04;17.92;;;7.78;;
40669;SDS011;26355;45.528;9.234;2023-05-19T15:54:30;21.75;;;10.05;;
40669;SDS011;26355;45.528;9.234;2023-05-19T15:56:56;15.98;;;6.55;;
40669;SDS011;26355;45.528;9.234;2023-05-19T15:59:21;18.65;;;7.80;;
40669;SDS011;26355;45.528;9.234;2023-05-19T16:01:47;18.92;;;7.20;;
40669;SDS011;26355;45.528;9.234;2023-05-19T16:04:13;16.42;;;6.47;;
40669;SDS011;26355;45.528;9.234;2023-05-19T16:06:38;17.33;;;7.40;;
40669;SDS011;26355;45.528;9.234;2023-05-19T16:09:05;16.13;;;6.53;;